Time;durP1;ratioP1;P1;durP2;ratioP2;P2;SDS_P1;SDS_P2;PMS_P1;PMS_P2;Temp;Humidity;BMP_temperature;BMP_pressure;BME280_temperature;BME280_humidity;BME280_pressure;Samples;Min_cycle;Max_cycle;Signal;HPM_P1;HPM_P2
2023/08/20 00:00:14;;;;;;;7.80;5.28;;;;;;;-145.69;nan;51771.09;5113428;28;20208;-81
2023/08/20 00:02:43;;;;;;;9.23;5.70;;;;;;;-145.69;nan;51775.06;5114012;28;20309;-81
2023/08/20 00:05:10;;;;;;;11.23;6.43;;;;;;;-145.69;nan;51783.00;5113789;28;20292;-81
2023/08/20 00:07:38;;;;;;;11.57;6.40;;;;;;;-145.69;nan;51802.78;5113750;28;20198;-81
2023/08/20 00:10:05;;;;;;;12.65;6.00;;;;;;;-145.69;nan;51771.09;5115633;27;20268;-81
2023/08/20 00:12:32;;;;;;;14.23;6.53;;;;;;;-145.69;nan;51775.06;5113693;28;20193;-81
2023/08/20 00:15:05;;;;;;;10.70;6.47;;;;;;;-145.69;nan;51783.00;5112968;28;20225;-80
2023/08/20 00:17:33;;;;;;;9.27;6.00;;;;;;;-145.69;nan;51792.88;5113860;28;20281;-81
2023/08/20 00:20:01;;;;;;;10.13;6.13;;;;;;;-145.69;nan;51767.16;5113113;28;20197;-81
2023/08/20 00:22:28;;;;;;;14.52;6.95;;;;;;;-145.69;nan;51798.81;5113527;28;20201;-81
2023/08/20 00:24:55;;;;;;;11.95;6.65;;;;;;;-145.69;nan;51781.00;5113522;28;20206;-81
2023/08/20 00:27:22;;;;;;;10.82;6.65;;;;;;;-145.69;nan;51798.81;5113412;28;20202;-81
2023/08/20 00:29:49;;;;;;;8.77;6.50;;;;;;;-145.69;nan;51767.16;5112923;28;20201;-80
2023/08/20 00:32:17;;;;;;;12.60;6.65;;;;;;;-145.69;nan;51761.22;5113319;28;20189;-81
2023/08/20 00:34:44;;;;;;;11.65;6.72;;;;;;;-145.69;nan;51784.97;5113356;28;20205;-80
2023/08/20 00:37:12;;;;;;;9.63;6.60;;;;;;;-145.69;nan;51769.13;5113391;28;20232;-81
2023/08/20 00:39:38;;;;;;;14.70;6.93;;;;;;;-145.69;nan;51800.81;5112674;28;20201;-80
2023/08/20 00:42:05;;;;;;;10.88;6.80;;;;;;;-145.69;nan;51788.94;5113102;28;20205;-81
2023/08/20 00:44:32;;;;;;;8.68;6.28;;;;;;;-145.69;nan;51790.91;5113295;28;20197;-81
2023/08/20 00:47:00;;;;;;;10.80;6.50;;;;;;;-145.69;nan;51757.25;5113389;28;20201;-81
2023/08/20 00:49:28;;;;;;;9.82;6.75;;;;;;;-145.69;nan;51806.75;5112606;28;20204;-82
2023/08/20 00:51:55;;;;;;;10.50;6.13;;;;;;;-145.69;nan;51798.81;5112909;28;20311;-81
2023/08/20 00:54:23;;;;;;;9.68;6.95;;;;;;;-145.69;nan;51790.91;5112826;28;20197;-81
2023/08/20 00:56:50;;;;;;;9.05;6.72;;;;;;;-145.69;nan;51816.66;5113115;28;20620;-81
2023/08/20 00:59:17;;;;;;;12.43;6.57;;;;;;;-145.69;nan;51818.63;5113043;28;20662;-81
2023/08/20 01:01:44;;;;;;;13.68;7.50;;;;;;;-145.69;nan;51812.69;5113067;28;20208;-81
2023/08/20 01:04:11;;;;;;;17.27;7.00;;;;;;;-145.69;nan;51786.94;5112861;28;20559;-81
2023/08/20 01:06:48;;;;;;;11.88;6.88;;;;;;;-145.69;nan;51792.88;5113015;28;20716;-81
2023/08/20 01:09:22;;;;;;;13.82;7.13;;;;;;;-145.69;nan;51824.56;5112805;28;20231;-81
2023/08/20 01:11:55;;;;;;;12.73;7.10;;;;;;;-145.69;nan;51784.97;5112838;28;20249;-80
2023/08/20 01:14:22;;;;;;;8.88;6.47;;;;;;;-145.69;nan;51769.13;5112739;28;20244;-81
2023/08/20 01:16:49;;;;;;;9.50;6.35;;;;;;;-145.69;nan;51818.63;5112943;28;20315;-81
2023/08/20 01:19:18;;;;;;;9.32;6.13;;;;;;;-145.69;nan;51786.94;5112529;28;20193;-81
2023/08/20 01:21:57;;;;;;;12.70;6.22;;;;;;;-145.69;nan;51784.97;5112714;28;20203;-81
2023/08/20 01:24:39;;;;;;;9.90;6.80;;;;;;;-145.69;nan;51781.00;5112724;28;20197;-80
2023/08/20 01:27:20;;;;;;;7.18;5.95;;;;;;;-145.69;nan;51783.00;5112955;28;20201;-81
2023/08/20 01:29:49;;;;;;;15.38;7.35;;;;;;;-145.69;nan;51800.81;5114591;28;20655;-81
2023/08/20 01:32:17;;;;;;;9.63;7.20;;;;;;;-145.69;nan;51822.59;5113698;28;20201;-81
2023/08/20 01:34:45;;;;;;;10.70;7.70;;;;;;;-145.69;nan;51818.63;5116198;28;20851;-80
2023/08/20 01:37:12;;;;;;;10.02;6.80;;;;;;;-145.69;nan;51812.69;5115830;28;20228;-81
2023/08/20 01:39:38;;;;;;;13.50;6.65;;;;;;;-145.69;nan;51832.50;5114712;28;20197;-81
2023/08/20 01:42:06;;;;;;;10.00;7.10;;;;;;;-145.69;nan;51820.59;5116788;28;20224;-80
2023/08/20 01:44:32;;;;;;;10.68;6.80;;;;;;;-145.69;nan;51814.66;5116369;28;20674;-80
2023/08/20 01:47:00;;;;;;;12.15;6.95;;;;;;;-145.69;nan;51826.56;5116627;28;20204;-80
2023/08/20 01:49:26;;;;;;;12.57;7.18;;;;;;;-145.69;nan;51806.75;5116360;28;20201;-80
2023/08/20 01:51:53;;;;;;;13.73;7.15;;;;;;;-145.69;nan;51784.97;5116036;28;20564;-80
2023/08/20 01:54:19;;;;;;;11.35;7.63;;;;;;;-145.69;nan;51792.88;5116486;28;20201;-80
2023/08/20 01:56:46;;;;;;;13.57;7.55;;;;;;;-145.69;nan;51822.59;5115993;28;20220;-80
2023/08/20 01:59:13;;;;;;;10.55;7.20;;;;;;;-145.69;nan;51810.72;5116039;28;20218;-80
2023/08/20 02:01:39;;;;;;;9.63;7.00;;;;;;;-145.69;nan;51822.59;5116053;28;20250;-81
2023/08/20 02:04:07;;;;;;;11.35;7.70;;;;;;;-145.69;nan;51820.59;5116163;28;20556;-81
2023/08/20 02:06:34;;;;;;;12.90;8.10;;;;;;;-145.69;nan;51798.81;5121195;27;20275;-80
2023/08/20 02:09:00;;;;;;;13.70;7.70;;;;;;;-145.69;nan;51816.66;5123599;27;20288;-81
2023/08/20 02:11:27;;;;;;;17.45;9.27;;;;;;;-145.69;nan;51830.50;5116378;28;20197;-80
2023/08/20 02:13:53;;;;;;;15.98;9.63;;;;;;;-145.69;nan;51818.63;5115837;28;20233;-80
2023/08/20 02:16:20;;;;;;;14.80;8.95;;;;;;;-145.69;nan;51822.59;5115949;28;20575;-81
2023/08/20 02:18:46;;;;;;;12.43;8.77;;;;;;;-145.69;nan;51788.94;5115575;28;20215;-80
2023/08/20 02:21:14;;;;;;;11.98;7.93;;;;;;;-145.69;nan;51810.72;5115486;28;20197;-81
2023/08/20 02:23:41;;;;;;;11.82;8.30;;;;;;;-145.69;nan;51818.63;5116028;28;20208;-81
2023/08/20 02:26:08;;;;;;;13.35;8.15;;;;;;;-145.69;nan;51798.81;5115692;28;20197;-81
2023/08/20 02:28:34;;;;;;;12.63;7.88;;;;;;;-145.69;nan;51812.69;5115710;28;20276;-81
2023/08/20 02:31:05;;;;;;;13.95;8.23;;;;;;;-145.69;nan;51810.72;5115644;28;20201;-81
2023/08/20 02:33:32;;;;;;;13.38;8.45;;;;;;;-145.69;nan;51800.81;5115590;28;20197;-81
2023/08/20 02:36:02;;;;;;;13.68;8.65;;;;;;;-145.69;nan;51802.78;5115866;28;20525;-80
2023/08/20 02:38:30;;;;;;;13.02;9.05;;;;;;;-145.69;nan;51822.59;5115230;28;20201;-80
2023/08/20 02:40:57;;;;;;;12.75;8.80;;;;;;;-145.69;nan;51834.47;5114331;28;20228;-81
2023/08/20 02:43:23;;;;;;;9.82;7.93;;;;;;;-145.69;nan;51830.50;5115241;28;20201;-80
2023/08/20 02:45:50;;;;;;;12.45;8.60;;;;;;;-145.69;nan;51790.91;5115533;28;20201;-82
2023/08/20 02:48:16;;;;;;;12.13;9.25;;;;;;;-145.69;nan;51820.59;5115326;28;20205;-81
2023/08/20 02:50:43;;;;;;;12.20;8.90;;;;;;;-145.69;nan;51806.75;5115534;28;20208;-80
2023/08/20 02:53:09;;;;;;;13.10;8.43;;;;;;;-145.69;nan;51798.81;5115154;28;20206;-81
2023/08/20 02:55:37;;;;;;;13.45;8.10;;;;;;;-145.69;nan;51820.59;5115250;28;20198;-80
2023/08/20 02:58:07;;;;;;;19.50;8.95;;;;;;;-145.69;nan;51808.72;5114999;28;20228;-80
2023/08/20 03:00:34;;;;;;;12.70;8.70;;;;;;;-145.69;nan;51790.91;5114071;28;20251;-81
2023/08/20 03:03:02;;;;;;;16.17;9.60;;;;;;;-145.69;nan;51810.72;5115035;28;20300;-81
2023/08/20 03:05:29;;;;;;;12.32;9.45;;;;;;;-145.69;nan;51790.91;5114719;28;20221;-81
2023/08/20 03:07:55;;;;;;;13.45;9.10;;;;;;;-145.69;nan;51802.78;5115053;28;20193;-81
2023/08/20 03:10:22;;;;;;;14.13;9.65;;;;;;;-145.69;nan;51814.66;5115061;28;20201;-80
2023/08/20 03:12:49;;;;;;;17.65;9.70;;;;;;;-145.69;nan;51802.78;5115095;28;20193;-81
2023/08/20 03:15:16;;;;;;;17.38;9.27;;;;;;;-145.69;nan;51828.53;5114570;28;20319;-81
2023/08/20 03:17:43;;;;;;;13.95;10.40;;;;;;;-145.69;nan;51842.38;5114835;28;20698;-81
2023/08/20 03:20:11;;;;;;;20.45;11.93;;;;;;;-145.69;nan;51806.75;5114580;28;20209;-80
2023/08/20 03:22:38;;;;;;;14.50;9.32;;;;;;;-145.69;nan;51838.44;5114632;28;20204;-80
2023/08/20 03:25:06;;;;;;;16.70;9.77;;;;;;;-145.69;nan;51830.50;5114506;28;20193;-81
2023/08/20 03:27:32;;;;;;;11.02;8.13;;;;;;;-145.69;nan;51810.72;5114480;28;20200;-82
2023/08/20 03:30:00;;;;;;;10.45;6.90;;;;;;;-145.69;nan;51812.69;5114099;28;20595;-80
2023/08/20 03:32:27;;;;;;;13.20;8.30;;;;;;;-145.69;nan;51828.53;5103375;28;20197;-80
2023/08/20 03:34:55;;;;;;;15.00;8.60;;;;;;;-145.69;nan;51846.34;5094085;28;20205;-81
2023/08/20 03:37:22;;;;;;;17.00;8.32;;;;;;;-145.69;nan;51854.28;5093980;28;20222;-81
2023/08/20 03:39:48;;;;;;;13.80;9.00;;;;;;;-145.69;nan;51830.50;5100581;28;20193;-80
2023/08/20 03:42:15;;;;;;;14.35;8.07;;;;;;;-145.69;nan;51834.47;5114508;28;20234;-81
2023/08/20 03:44:41;;;;;;;17.25;9.73;;;;;;;-145.69;nan;51870.13;5114390;28;20193;-82
2023/08/20 03:47:09;;;;;;;13.75;9.85;;;;;;;-145.69;nan;51842.38;5112277;28;20193;-81
2023/08/20 03:49:36;;;;;;;13.70;9.02;;;;;;;-145.69;nan;51882.00;5114128;28;20277;-80
2023/08/20 03:52:02;;;;;;;15.43;9.68;;;;;;;-145.69;nan;51846.34;5113567;28;20201;-81
2023/08/20 03:54:29;;;;;;;18.10;10.75;;;;;;;-145.69;nan;51826.56;5113928;28;20190;-81
2023/08/20 03:56:56;;;;;;;21.25;11.07;;;;;;;-145.69;nan;51838.44;5114113;28;20260;-81
2023/08/20 03:59:22;;;;;;;14.95;10.15;;;;;;;-145.69;nan;51840.41;5113783;28;20672;-80
2023/08/20 04:01:49;;;;;;;17.30;11.77;;;;;;;-145.69;nan;51834.47;5113145;28;20201;-80
2023/08/20 04:04:17;;;;;;;18.90;12.13;;;;;;;-145.69;nan;51806.75;5113517;28;20595;-82
2023/08/20 04:06:43;;;;;;;18.80;11.57;;;;;;;-145.69;nan;51838.44;5114109;28;20198;-81
2023/08/20 04:09:10;;;;;;;21.70;12.25;;;;;;;-145.69;nan;51826.56;5113796;28;20202;-81
2023/08/20 04:11:39;;;;;;;16.92;11.20;;;;;;;-145.69;nan;51830.50;5113895;28;20204;-82
2023/08/20 04:14:05;;;;;;;19.48;11.40;;;;;;;-145.69;nan;51838.44;5115686;27;20228;-81
2023/08/20 04:16:32;;;;;;;21.38;11.40;;;;;;;-145.69;nan;51856.25;5113705;28;20292;-81
2023/08/20 04:18:58;;;;;;;16.30;11.77;;;;;;;-145.69;nan;51808.72;5114115;28;20290;-82
2023/08/20 04:21:26;;;;;;;20.80;13.25;;;;;;;-145.69;nan;51842.38;5113199;28;20197;-81
2023/08/20 04:23:53;;;;;;;15.88;10.60;;;;;;;-145.69;nan;51820.59;5113694;28;20201;-81
2023/08/20 04:26:19;;;;;;;22.30;11.73;;;;;;;-145.69;nan;51834.47;5112582;28;20193;-82
2023/08/20 04:28:46;;;;;;;16.08;11.25;;;;;;;-145.69;nan;51866.16;5113525;28;20201;-81
2023/08/20 04:31:12;;;;;;;17.08;11.55;;;;;;;-145.69;nan;51846.34;5113420;28;20208;-81
2023/08/20 04:33:39;;;;;;;19.42;12.07;;;;;;;-145.69;nan;51828.53;5113570;28;20204;-81
2023/08/20 04:36:06;;;;;;;19.38;12.00;;;;;;;-145.69;nan;51824.56;5113528;28;20202;-81
2023/08/20 04:38:34;;;;;;;17.67;11.38;;;;;;;-145.69;nan;51822.59;5113288;28;20251;-81
2023/08/20 04:41:00;;;;;;;19.55;12.35;;;;;;;-145.69;nan;51856.25;5113453;28;20205;-81
2023/08/20 04:43:27;;;;;;;20.27;12.32;;;;;;;-145.69;nan;51864.16;5113562;28;20210;-80
2023/08/20 04:45:53;;;;;;;15.40;11.02;;;;;;;-145.69;nan;51790.91;5113112;28;20197;-80
2023/08/20 04:48:20;;;;;;;14.80;10.80;;;;;;;-145.69;nan;51852.28;5113187;28;20205;-80
2023/08/20 04:50:47;;;;;;;14.35;10.23;;;;;;;-145.69;nan;51840.41;5113267;28;20201;-81
2023/08/20 04:53:14;;;;;;;18.90;11.27;;;;;;;-145.69;nan;51828.53;5111788;28;20193;-81
2023/08/20 04:55:42;;;;;;;19.55;10.93;;;;;;;-145.69;nan;51822.59;5111898;28;20193;-81
2023/08/20 04:58:09;;;;;;;15.20;10.88;;;;;;;-145.69;nan;51860.22;5112532;28;20291;-81
2023/08/20 05:00:35;;;;;;;18.30;10.13;;;;;;;-145.69;nan;51846.34;5113292;28;20198;-81
2023/08/20 05:03:02;;;;;;;14.55;9.95;;;;;;;-145.69;nan;51830.50;5113243;28;20205;-81
2023/08/20 05:05:28;;;;;;;17.20;10.93;;;;;;;-145.69;nan;51850.31;5116442;28;20204;-81
2023/08/20 05:07:55;;;;;;;18.27;11.18;;;;;;;-145.69;nan;51842.38;5117249;28;20652;-81
2023/08/20 05:10:21;;;;;;;20.17;11.15;;;;;;;-145.69;nan;51862.19;5117198;28;20203;-81
2023/08/20 05:12:49;;;;;;;16.27;11.10;;;;;;;-145.69;nan;51826.56;5117310;28;20219;-81
2023/08/20 05:15:16;;;;;;;20.85;12.88;;;;;;;-145.69;nan;51822.59;5116981;28;20592;-80
2023/08/20 05:17:42;;;;;;;18.13;11.85;;;;;;;-145.69;nan;51814.66;5116915;28;20225;-81
2023/08/20 05:20:09;;;;;;;15.30;10.88;;;;;;;-145.69;nan;51862.19;5117065;28;20205;-81
2023/08/20 05:22:36;;;;;;;20.33;11.55;;;;;;;-145.69;nan;51856.25;5116729;28;20194;-80
2023/08/20 05:25:02;;;;;;;19.02;11.63;;;;;;;-145.69;nan;51836.44;5116916;28;20207;-80
2023/08/20 05:27:29;;;;;;;20.02;11.57;;;;;;;-145.69;nan;51822.59;5117333;28;20200;-81
2023/08/20 05:29:57;;;;;;;22.08;11.00;;;;;;;-145.69;nan;51794.88;5116783;28;20225;-81
2023/08/20 05:32:23;;;;;;;17.42;11.88;;;;;;;-145.69;nan;51824.56;5116338;28;20798;-81
2023/08/20 05:34:50;;;;;;;15.15;10.32;;;;;;;-145.69;nan;51830.50;5116904;28;20288;-81
2023/08/20 05:37:16;;;;;;;15.55;10.63;;;;;;;-145.69;nan;51852.28;5113570;28;20714;-81
2023/08/20 05:39:44;;;;;;;13.40;10.27;;;;;;;-145.69;nan;51800.81;5114742;28;20288;-80
2023/08/20 05:42:11;;;;;;;12.00;9.70;;;;;;;-145.69;nan;51826.56;5116006;28;20278;-81
2023/08/20 05:44:38;;;;;;;16.77;11.05;;;;;;;-145.69;nan;51842.38;5116618;28;20533;-81
2023/08/20 05:47:06;;;;;;;12.40;9.63;;;;;;;-145.69;nan;51820.59;5116571;28;20198;-82
2023/08/20 05:49:32;;;;;;;12.73;9.63;;;;;;;-145.69;nan;51810.72;5116818;28;20202;-81
2023/08/20 05:51:59;;;;;;;15.52;10.25;;;;;;;-145.69;nan;51834.47;5115671;28;20560;-81
2023/08/20 05:54:25;;;;;;;15.88;9.85;;;;;;;-145.69;nan;51822.59;5116541;28;20202;-81
2023/08/20 05:56:52;;;;;;;12.95;9.60;;;;;;;-145.69;nan;51802.78;5116147;28;20204;-81
2023/08/20 05:59:18;;;;;;;13.10;9.73;;;;;;;-145.69;nan;51832.50;5116276;28;20574;-81
2023/08/20 06:01:46;;;;;;;13.00;9.23;;;;;;;-145.69;nan;51826.56;5115756;28;20196;-81
2023/08/20 06:04:14;;;;;;;15.95;10.13;;;;;;;-145.69;nan;51808.72;5116720;27;20202;-81
2023/08/20 06:06:41;;;;;;;11.43;9.23;;;;;;;-145.69;nan;51810.72;5132356;27;20203;-81
2023/08/20 06:09:07;;;;;;;12.32;9.50;;;;;;;-145.69;nan;51788.94;5136860;27;20197;-80
2023/08/20 06:11:34;;;;;;;12.35;9.13;;;;;;;-145.69;nan;51781.00;5118785;27;20200;-81
2023/08/20 06:14:00;;;;;;;14.52;9.93;;;;;;;-145.69;nan;51816.66;5115969;28;20229;-81
2023/08/20 06:16:27;;;;;;;13.07;9.38;;;;;;;-145.69;nan;51790.91;5115818;28;20202;-81
2023/08/20 06:18:53;;;;;;;10.50;8.40;;;;;;;-145.69;nan;51775.06;5115333;28;20715;-80
2023/08/20 06:21:21;;;;;;;11.90;7.70;;;;;;;-145.69;nan;51763.19;5115754;28;20186;-80
2023/08/20 06:23:48;;;;;;;11.05;7.22;;;;;;;-145.69;nan;51773.09;5115386;28;20278;-81
2023/08/20 06:26:15;;;;;;;12.02;7.20;;;;;;;-145.69;nan;51773.09;5115374;28;20276;-80
2023/08/20 06:28:43;;;;;;;11.45;7.25;;;;;;;-145.69;nan;51747.34;5115625;28;20775;-81
2023/08/20 06:31:09;;;;;;;12.23;5.78;;;;;;;-145.69;nan;51759.22;5115456;28;20229;-81
2023/08/20 06:33:36;;;;;;;9.35;6.18;;;;;;;-145.69;nan;51739.44;5115258;28;20981;-81
2023/08/20 06:36:02;;;;;;;6.70;5.63;;;;;;;-145.69;nan;51763.19;5115646;28;20208;-82
2023/08/20 06:38:30;;;;;;;10.52;5.75;;;;;;;-145.69;nan;51733.50;5116258;28;20315;-81
2023/08/20 06:40:57;;;;;;;8.43;5.65;;;;;;;-145.69;nan;51715.66;5115907;28;20313;-82
2023/08/20 06:43:23;;;;;;;6.88;5.28;;;;;;;-145.69;nan;51725.56;5095768;28;20280;-82
2023/08/20 06:45:50;;;;;;;9.70;5.22;;;;;;;-145.69;nan;51751.31;5095043;28;20204;-81
2023/08/20 06:48:19;;;;;;;6.70;4.72;;;;;;;-145.69;nan;51707.75;5095131;28;20199;-82
2023/08/20 06:50:46;;;;;;;8.38;5.60;;;;;;;-145.69;nan;51731.50;5095450;28;20671;-82
2023/08/20 06:53:12;;;;;;;10.05;5.53;;;;;;;-145.69;nan;51731.50;5114213;28;20198;-82
2023/08/20 06:55:40;;;;;;;10.20;5.93;;;;;;;-145.69;nan;51737.44;5115494;28;20209;-82
2023/08/20 06:58:07;;;;;;;7.53;5.18;;;;;;;-145.69;nan;51721.59;5115765;28;20228;-82
2023/08/20 07:00:33;;;;;;;8.70;5.53;;;;;;;-145.69;nan;51739.44;5116042;28;20189;-81
2023/08/20 07:03:00;;;;;;;8.65;5.82;;;;;;;-145.69;nan;51735.47;5115958;28;20280;-82
2023/08/20 07:05:26;;;;;;;7.13;5.38;;;;;;;-145.69;nan;51735.47;5115333;28;20674;-82
2023/08/20 07:07:53;;;;;;;9.20;6.07;;;;;;;-145.69;nan;51713.69;5115395;28;20207;-81
2023/08/20 07:10:19;;;;;;;9.35;6.00;;;;;;;-145.69;nan;51711.72;5114795;28;20575;-81
2023/08/20 07:12:47;;;;;;;10.27;6.10;;;;;;;-145.69;nan;51751.31;5114962;28;20280;-81
2023/08/20 07:15:16;;;;;;;11.32;6.38;;;;;;;-145.69;nan;51719.63;5114740;28;20221;-81
2023/08/20 07:17:42;;;;;;;12.57;6.40;;;;;;;-145.69;nan;51691.91;5115129;28;20219;-81
2023/08/20 07:20:09;;;;;;;12.20;5.82;;;;;;;-145.69;nan;51715.66;5114746;28;20204;-81
2023/08/20 07:22:35;;;;;;;10.20;6.00;;;;;;;-145.69;nan;51731.50;5114334;28;20690;-81
2023/08/20 07:25:02;;;;;;;10.68;6.22;;;;;;;-145.69;nan;51747.34;5114745;28;20201;-82
2023/08/20 07:27:31;;;;;;;12.25;6.32;;;;;;;-145.69;nan;51715.66;5114024;28;20201;-81
2023/08/20 07:29:58;;;;;;;10.70;6.00;;;;;;;-145.69;nan;51719.63;5114096;28;20224;-81
2023/08/20 07:32:25;;;;;;;10.35;6.25;;;;;;;-145.69;nan;51705.75;5114764;28;20208;-81
2023/08/20 07:34:51;;;;;;;11.10;6.18;;;;;;;-145.69;nan;51729.53;5114718;28;20201;-81
2023/08/20 07:37:18;;;;;;;9.45;5.97;;;;;;;-145.69;nan;51731.50;5114564;28;20652;-81
2023/08/20 07:39:47;;;;;;;9.13;5.57;;;;;;;-145.69;nan;51707.75;5114012;28;20225;-81
2023/08/20 07:42:13;;;;;;;8.27;5.90;;;;;;;-145.69;nan;51717.66;5112895;28;20200;-81
2023/08/20 07:44:48;;;;;;;9.60;6.40;;;;;;;-145.69;nan;51703.78;5110711;28;20190;-81
2023/08/20 07:47:19;;;;;;;10.95;6.05;;;;;;;-145.69;nan;51707.75;5114528;28;20207;-81
2023/08/20 07:49:45;;;;;;;14.27;6.10;;;;;;;-145.69;nan;51707.75;5114273;28;20201;-82
2023/08/20 07:52:12;;;;;;;8.48;5.97;;;;;;;-145.69;nan;51705.75;5113939;28;20212;-82
2023/08/20 07:54:38;;;;;;;8.18;5.72;;;;;;;-145.69;nan;51699.81;5113915;28;20193;-82
2023/08/20 07:57:05;;;;;;;9.52;5.63;;;;;;;-145.69;nan;51699.81;5113531;28;20200;-81
2023/08/20 07:59:31;;;;;;;11.85;5.95;;;;;;;-145.69;nan;51687.94;5113945;28;20316;-81
2023/08/20 08:01:57;;;;;;;14.93;6.07;;;;;;;-145.69;nan;51717.66;5113254;28;20194;-81
2023/08/20 08:04:25;;;;;;;11.88;5.93;;;;;;;-145.69;nan;51680.03;5114081;28;20201;-82
2023/08/20 08:06:52;;;;;;;9.80;5.97;;;;;;;-145.69;nan;51685.97;5114109;27;20235;-81
2023/08/20 08:09:22;;;;;;;9.73;5.90;;;;;;;-145.69;nan;51682.00;5115485;27;20284;-81
2023/08/20 08:11:50;;;;;;;9.63;5.45;;;;;;;-145.69;nan;51685.97;5113346;28;20204;-82
2023/08/20 08:14:19;;;;;;;7.00;5.07;;;;;;;-145.69;nan;51666.16;5113505;28;20229;-82
2023/08/20 08:16:47;;;;;;;7.68;5.50;;;;;;;-145.69;nan;51660.22;5113600;28;20197;-82
2023/08/20 08:19:13;;;;;;;10.43;5.88;;;;;;;-145.69;nan;51656.25;5113660;28;20557;-81
2023/08/20 08:21:45;;;;;;;12.07;5.10;;;;;;;-145.69;nan;51648.34;5113825;28;20672;-83
2023/08/20 08:24:12;;;;;;;13.07;5.93;;;;;;;-145.69;nan;51630.53;5112909;28;20205;-81
2023/08/20 08:26:39;;;;;;;7.63;5.45;;;;;;;-145.69;nan;51678.03;5113262;28;20251;-81
2023/08/20 08:29:06;;;;;;;7.80;5.50;;;;;;;-145.69;nan;51632.50;5113460;28;20571;-82
2023/08/20 08:31:33;;;;;;;16.90;5.65;;;;;;;-145.69;nan;51656.25;5113254;28;20216;-81
2023/08/20 08:34:00;;;;;;;9.98;5.97;;;;;;;-145.69;nan;51668.16;5113008;28;20197;-82
2023/08/20 08:36:28;;;;;;;17.58;6.32;;;;;;;-145.69;nan;51656.25;5113388;28;20271;-82
2023/08/20 08:38:56;;;;;;;12.38;5.95;;;;;;;-145.69;nan;51691.91;5095340;28;20229;-82
2023/08/20 08:41:24;;;;;;;10.00;5.75;;;;;;;-145.69;nan;51683.97;5113588;28;20198;-81
2023/08/20 08:43:51;;;;;;;8.88;5.68;;;;;;;-145.69;nan;51693.88;5113713;28;20247;-81
2023/08/20 08:46:17;;;;;;;10.23;5.93;;;;;;;-145.69;nan;51666.16;5113163;28;20287;-81
2023/08/20 08:48:45;;;;;;;10.50;5.72;;;;;;;-145.69;nan;51648.34;5113423;28;20205;-82
2023/08/20 08:51:13;;;;;;;9.02;5.70;;;;;;;-145.69;nan;51632.50;5112325;28;20667;-81
2023/08/20 08:53:39;;;;;;;10.20;5.35;;;;;;;-145.69;nan;51687.94;5113502;28;20207;-81
2023/08/20 08:56:10;;;;;;;13.13;5.35;;;;;;;-145.69;nan;51662.22;5113055;28;20236;-81
2023/08/20 08:58:37;;;;;;;8.48;5.13;;;;;;;-145.69;nan;51660.22;5112891;28;20221;-81
2023/08/20 09:01:03;;;;;;;19.15;5.57;;;;;;;-145.69;nan;51656.25;5113137;28;20280;-82
2023/08/20 09:03:32;;;;;;;11.65;5.65;;;;;;;-145.69;nan;51660.22;5113079;28;20194;-82
2023/08/20 09:06:02;;;;;;;9.30;5.18;;;;;;;-145.69;nan;51680.03;5113022;28;20201;-81
2023/08/20 09:08:30;;;;;;;10.88;5.75;;;;;;;-145.69;nan;51676.06;5112994;28;20200;-82
2023/08/20 09:11:02;;;;;;;8.90;4.80;;;;;;;-145.69;nan;51656.25;5113091;28;20193;-81
2023/08/20 09:13:36;;;;;;;6.05;4.72;;;;;;;-145.69;nan;51664.19;5112824;28;20225;-82
2023/08/20 09:16:07;;;;;;;8.18;4.68;;;;;;;-145.69;nan;51660.22;5112894;28;20201;-82
2023/08/20 09:18:38;;;;;;;11.55;5.22;;;;;;;-145.69;nan;51658.25;5112850;28;20278;-82
2023/08/20 09:21:08;;;;;;;11.05;5.65;;;;;;;-145.69;nan;51652.31;5112764;28;20205;-83
2023/08/20 09:23:37;;;;;;;9.50;4.43;;;;;;;-145.69;nan;51662.22;5112603;28;20201;-82
2023/08/20 09:26:05;;;;;;;10.73;4.28;;;;;;;-145.69;nan;51640.44;5112768;28;20542;-83
2023/08/20 09:28:43;;;;;;;7.80;4.75;;;;;;;-145.69;nan;51640.44;5112133;28;20201;-82
2023/08/20 09:31:10;;;;;;;8.73;5.05;;;;;;;-145.69;nan;51672.09;5113042;28;20204;-82
2023/08/20 09:33:37;;;;;;;7.85;4.30;;;;;;;-145.69;nan;51656.25;5112716;28;20203;-82
2023/08/20 09:36:03;;;;;;;8.30;5.32;;;;;;;-145.69;nan;51672.09;5111149;28;20197;-85
2023/08/20 09:38:30;;;;;;;9.10;4.80;;;;;;;-145.69;nan;51658.25;5112363;28;20664;-83
2023/08/20 09:40:58;;;;;;;9.25;5.05;;;;;;;-145.69;nan;51638.44;5095034;28;20198;-82
2023/08/20 09:43:28;;;;;;;8.82;4.72;;;;;;;-145.69;nan;51646.38;5112733;28;20537;-83
2023/08/20 09:45:57;;;;;;;7.85;4.72;;;;;;;-145.69;nan;51654.28;5112582;28;20204;-82
2023/08/20 09:48:26;;;;;;;9.73;4.47;;;;;;;-145.69;nan;51642.41;5112634;28;20223;-82
2023/08/20 09:51:02;;;;;;;7.70;4.32;;;;;;;-145.69;nan;51640.44;5114896;28;20205;-83
2023/08/20 09:53:37;;;;;;;9.57;4.78;;;;;;;-145.69;nan;51658.25;5114279;28;20192;-82
2023/08/20 09:56:10;;;;;;;13.27;3.97;;;;;;;-145.69;nan;51638.44;5116124;28;20193;-82
2023/08/20 09:58:40;;;;;;;7.63;4.40;;;;;;;-145.69;nan;51668.16;5116437;28;20194;-83
2023/08/20 10:01:13;;;;;;;7.22;4.50;;;;;;;-145.69;nan;51642.41;5098188;28;20280;-82
2023/08/20 10:03:39;;;;;;;9.75;4.75;;;;;;;-145.69;nan;51644.38;5116130;28;20190;-83
2023/08/20 10:06:07;;;;;;;9.50;4.80;;;;;;;-145.69;nan;51622.59;5115689;28;20667;-82
2023/08/20 10:08:36;;;;;;;11.18;4.85;;;;;;;-145.69;nan;51628.53;5115982;28;20201;-83
2023/08/20 10:11:05;;;;;;;9.68;4.47;;;;;;;-145.69;nan;51624.59;5116489;28;20205;-84
2023/08/20 10:13:32;;;;;;;9.88;5.07;;;;;;;-145.69;nan;51650.31;5115527;28;20806;-82
2023/08/20 10:15:59;;;;;;;8.60;4.65;;;;;;;-145.69;nan;51636.47;5133446;27;20204;-82
2023/08/20 10:18:27;;;;;;;17.00;4.72;;;;;;;-145.69;nan;51622.59;5136757;27;20556;-83
2023/08/20 10:20:54;;;;;;;9.40;4.90;;;;;;;-145.69;nan;51636.47;5136686;27;20205;-83
2023/08/20 10:23:22;;;;;;;8.38;4.82;;;;;;;-145.69;nan;51616.66;5129006;27;20200;-82
2023/08/20 10:25:49;;;;;;;6.45;4.30;;;;;;;-145.69;nan;51630.53;5112201;28;20246;-83
2023/08/20 10:28:22;;;;;;;10.43;4.82;;;;;;;-145.69;nan;51632.50;5112295;28;20204;-83
2023/08/20 10:31:09;;;;;;;11.55;4.32;;;;;;;-145.69;nan;51622.59;5116374;28;20212;-83
2023/08/20 10:33:39;;;;;;;8.00;3.83;;;;;;;-145.69;nan;51614.69;5115962;28;20194;-84
2023/08/20 10:36:16;;;;;;;12.18;4.80;;;;;;;-145.69;nan;51638.44;5116200;28;20197;-83
2023/08/20 10:38:42;;;;;;;8.77;3.50;;;;;;;-145.69;nan;51630.53;5115234;28;20690;-83
2023/08/20 10:41:10;;;;;;;5.70;3.67;;;;;;;-145.69;nan;51624.59;5097197;28;20285;-83
2023/08/20 10:43:39;;;;;;;10.30;3.78;;;;;;;-145.69;nan;51638.44;5115255;28;20656;-82
2023/08/20 10:46:07;;;;;;;7.78;3.85;;;;;;;-145.69;nan;51610.72;5097703;28;20209;-83
2023/08/20 10:48:35;;;;;;;8.77;3.47;;;;;;;-145.69;nan;51632.50;5115354;28;20284;-85
2023/08/20 10:51:18;;;;;;;12.25;4.10;;;;;;;-145.69;nan;51624.59;5115651;28;20200;-84
2023/08/20 10:54:03;;;;;;;10.20;4.28;;;;;;;-145.69;nan;51620.63;5112198;28;20207;-84
2023/08/20 10:56:39;;;;;;;8.85;3.92;;;;;;;-145.69;nan;51610.72;5113535;28;20201;-84
2023/08/20 10:59:08;;;;;;;8.57;4.43;;;;;;;-145.69;nan;51604.78;5115378;28;20201;-83
2023/08/20 11:01:35;;;;;;;10.13;4.78;;;;;;;-145.69;nan;51608.75;5114094;28;20185;-83
2023/08/20 11:04:06;;;;;;;6.35;4.22;;;;;;;-145.69;nan;51604.78;5114779;28;20670;-85
2023/08/20 11:06:34;;;;;;;7.15;4.10;;;;;;;-145.69;nan;51606.75;5115294;28;20216;-83
2023/08/20 11:09:03;;;;;;;9.05;4.22;;;;;;;-145.69;nan;51588.94;5115075;28;20209;-84
2023/08/20 11:11:30;;;;;;;6.43;4.03;;;;;;;-145.69;nan;51614.69;5115175;28;20215;-84
2023/08/20 11:13:56;;;;;;;10.18;4.43;;;;;;;-145.69;nan;51600.81;5114814;28;20233;-83
2023/08/20 11:16:23;;;;;;;8.05;4.10;;;;;;;-145.69;nan;51592.91;5115014;28;20664;-83
2023/08/20 11:18:53;;;;;;;7.90;4.20;;;;;;;-145.69;nan;51581.03;5114396;28;20192;-83
2023/08/20 11:21:21;;;;;;;7.80;4.18;;;;;;;-145.69;nan;51588.94;5095798;28;20208;-82
2023/08/20 11:23:49;;;;;;;6.80;3.88;;;;;;;-145.69;nan;51600.81;5114544;28;20212;-82
2023/08/20 11:26:15;;;;;;;10.85;4.03;;;;;;;-145.69;nan;51604.78;5113941;28;20193;-82
2023/08/20 11:28:46;;;;;;;10.00;4.03;;;;;;;-145.69;nan;51594.88;5113270;28;20676;-82